ASL82Y LYBE-ESSA
Flight info
| Callsign | ASL82Y |
|---|---|
| Flight time | N/A |
| Altitude | 36000 |
| Route | TISAK DCT PARAK DCT DEMOP DCT BABKO DCT RATOR DCT PENOR DCT ARMOD/N0445F370 Z228 NILUG |
| Aircraft | A319/M-SDE3FGHIRWY/LB1 |
Departure
| Time | 2026-05-01 11:58 |
|---|---|
| Airport | Belgrade Nikola Tesla Airport (LYBE) |
Arrival
| Time | N/A |
|---|---|
| Airport | Stockholm-Arlanda Airport (ESSA) |
| Time | Latitude | Longitude | Altitude | Speed | Heading |
|---|---|---|---|---|---|
| 2026-05-01 11:32 | 44.82166 | 20.29108 | 307 ft | 0 kts | 212° |
| 2026-05-01 11:51 | 44.82184 | 20.29124 | 307 ft | 4 kts | 212° |
| 2026-05-01 11:52 | 44.82203 | 20.29140 | 307 ft | 4 kts | 223° |
| 2026-05-01 11:52 | 44.82214 | 20.29168 | 308 ft | 4 kts | 277° |
| 2026-05-01 11:52 | 44.82206 | 20.29197 | 305 ft | 2 kts | 302° |
| 2026-05-01 11:52 | 44.82205 | 20.29199 | 305 ft | 0 kts | 302° |
| 2026-05-01 11:55 | 44.82209 | 20.29189 | 307 ft | 3 kts | 302° |
| 2026-05-01 11:55 | 44.82225 | 20.29154 | 307 ft | 6 kts | 302° |
| 2026-05-01 11:56 | 44.82261 | 20.29126 | 307 ft | 7 kts | 4° |
| 2026-05-01 11:56 | 44.82307 | 20.29144 | 307 ft | 7 kts | 333° |
| 2026-05-01 11:56 | 44.82341 | 20.29078 | 309 ft | 10 kts | 300° |
| 2026-05-01 11:56 | 44.82381 | 20.28985 | 307 ft | 12 kts | 303° |
| 2026-05-01 11:57 | 44.82434 | 20.28879 | 307 ft | 14 kts | 315° |
| 2026-05-01 11:57 | 44.82530 | 20.28873 | 307 ft | 16 kts | 27° |
| 2026-05-01 11:57 | 44.82604 | 20.28994 | 306 ft | 18 kts | 66° |
| 2026-05-01 11:57 | 44.82619 | 20.29142 | 306 ft | 14 kts | 92° |
| 2026-05-01 11:58 | 44.82552 | 20.29321 | 306 ft | 42 kts | 122° |
| 2026-05-01 11:58 | 44.82269 | 20.29957 | 306 ft | 111 kts | 122° |
| 2026-05-01 11:58 | 44.81112 | 20.32536 | 978 ft | 166 kts | 121° |
| 2026-05-01 11:59 | 44.80491 | 20.33879 | 1758 ft | 165 kts | 120° |
| 2026-05-01 11:59 | 44.79845 | 20.35317 | 2058 ft | 184 kts | 119° |
| 2026-05-01 11:59 | 44.79137 | 20.36946 | 2276 ft | 206 kts | 119° |
| 2026-05-01 12:00 | 44.79197 | 20.41123 | 2838 ft | 246 kts | 50° |
| 2026-05-01 12:00 | 44.80611 | 20.42430 | 3595 ft | 250 kts | 12° |
| 2026-05-01 12:00 | 44.84096 | 20.41852 | 5456 ft | 257 kts | 347° |
| 2026-05-01 12:01 | 44.85865 | 20.41305 | 6027 ft | 262 kts | 349° |
| 2026-05-01 12:01 | 44.87640 | 20.40849 | 6925 ft | 264 kts | 351° |
| 2026-05-01 12:01 | 44.89480 | 20.40412 | 7774 ft | 266 kts | 352° |
| 2026-05-01 12:01 | 44.91312 | 20.39990 | 8653 ft | 268 kts | 353° |
| 2026-05-01 12:02 | 44.93155 | 20.39564 | 9544 ft | 269 kts | 353° |
| 2026-05-01 12:02 | 44.95006 | 20.39132 | 10354 ft | 273 kts | 354° |
| 2026-05-01 12:02 | 44.96959 | 20.38677 | 10589 ft | 296 kts | 353° |
| 2026-05-01 12:02 | 44.99071 | 20.38183 | 10764 ft | 319 kts | 353° |
| 2026-05-01 12:03 | 45.01317 | 20.37649 | 11102 ft | 333 kts | 353° |
| 2026-05-01 12:03 | 45.03626 | 20.37090 | 11703 ft | 338 kts | 353° |
| 2026-05-01 12:03 | 45.05956 | 20.36522 | 12343 ft | 342 kts | 353° |
| 2026-05-01 12:03 | 45.08311 | 20.35950 | 13001 ft | 345 kts | 353° |
| 2026-05-01 12:04 | 45.10697 | 20.35374 | 13642 ft | 349 kts | 353° |
| 2026-05-01 12:04 | 45.13102 | 20.34798 | 14264 ft | 352 kts | 353° |
| 2026-05-01 12:04 | 45.15523 | 20.34218 | 14843 ft | 355 kts | 353° |
| 2026-05-01 12:04 | 45.17934 | 20.33637 | 15434 ft | 357 kts | 353° |
| 2026-05-01 12:05 | 45.20386 | 20.33043 | 16032 ft | 359 kts | 354° |
| 2026-05-01 12:05 | 45.25346 | 20.31846 | 17256 ft | 363 kts | 354° |
| 2026-05-01 12:05 | 45.27846 | 20.31241 | 17864 ft | 366 kts | 354° |
| 2026-05-01 12:06 | 45.30362 | 20.30627 | 18472 ft | 368 kts | 354° |
| 2026-05-01 12:06 | 45.32895 | 20.30007 | 19019 ft | 370 kts | 354° |
| 2026-05-01 12:06 | 45.35447 | 20.29384 | 19545 ft | 372 kts | 355° |
| 2026-05-01 12:06 | 45.38006 | 20.28763 | 20105 ft | 373 kts | 355° |
| 2026-05-01 12:07 | 45.40575 | 20.28137 | 20623 ft | 375 kts | 355° |
| 2026-05-01 12:07 | 45.43156 | 20.27505 | 21123 ft | 377 kts | 355° |
| 2026-05-01 12:07 | 45.45752 | 20.26868 | 21618 ft | 379 kts | 355° |
| 2026-05-01 12:07 | 45.48358 | 20.26230 | 22088 ft | 381 kts | 355° |
| 2026-05-01 12:08 | 45.50980 | 20.25590 | 22550 ft | 383 kts | 355° |
| 2026-05-01 12:08 | 45.53616 | 20.24949 | 22989 ft | 385 kts | 356° |
| 2026-05-01 12:08 | 45.56262 | 20.24305 | 23432 ft | 387 kts | 356° |
| 2026-05-01 12:08 | 45.58888 | 20.23666 | 23874 ft | 388 kts | 356° |
| 2026-05-01 12:09 | 45.61558 | 20.23014 | 24248 ft | 390 kts | 357° |
| 2026-05-01 12:09 | 45.64232 | 20.22359 | 24616 ft | 391 kts | 357° |
| 2026-05-01 12:09 | 45.66922 | 20.21695 | 24989 ft | 393 kts | 357° |
| 2026-05-01 12:09 | 45.69619 | 20.21028 | 25356 ft | 394 kts | 357° |
| 2026-05-01 12:10 | 45.72330 | 20.20360 | 25709 ft | 396 kts | 358° |
| 2026-05-01 12:10 | 45.77779 | 20.19021 | 26451 ft | 399 kts | 358° |
| 2026-05-01 12:10 | 45.80518 | 20.18345 | 26810 ft | 400 kts | 358° |
| 2026-05-01 12:11 | 45.86011 | 20.16986 | 27496 ft | 402 kts | 358° |
| 2026-05-01 12:11 | 45.88774 | 20.16307 | 27832 ft | 403 kts | 359° |
| 2026-05-01 12:11 | 45.91544 | 20.15624 | 28156 ft | 405 kts | 359° |
| 2026-05-01 12:12 | 45.94326 | 20.14934 | 28477 ft | 406 kts | 359° |
| 2026-05-01 12:12 | 45.97120 | 20.14238 | 28728 ft | 408 kts | 359° |
| 2026-05-01 12:12 | 45.99922 | 20.13538 | 29004 ft | 410 kts | 359° |
| 2026-05-01 12:12 | 46.02740 | 20.12834 | 29294 ft | 412 kts | 359° |
| 2026-05-01 12:13 | 46.05569 | 20.12128 | 29642 ft | 412 kts | 359° |
| 2026-05-01 12:13 | 46.08386 | 20.11421 | 30086 ft | 410 kts | 359° |
| 2026-05-01 12:13 | 46.11156 | 20.10722 | 30511 ft | 408 kts | 359° |
| 2026-05-01 12:13 | 46.13952 | 20.10016 | 30846 ft | 407 kts | 359° |
| 2026-05-01 12:14 | 46.16743 | 20.09433 | 31161 ft | 401 kts | 4° |
| 2026-05-01 12:14 | 46.19513 | 20.09345 | 31462 ft | 398 kts | 7° |
| 2026-05-01 12:14 | 46.22284 | 20.09307 | 31763 ft | 398 kts | 7° |
| 2026-05-01 12:14 | 46.25052 | 20.09263 | 32085 ft | 398 kts | 7° |
| 2026-05-01 12:15 | 46.27816 | 20.09217 | 32388 ft | 397 kts | 6° |
| 2026-05-01 12:15 | 46.30584 | 20.09165 | 32696 ft | 397 kts | 6° |
| 2026-05-01 12:15 | 46.33347 | 20.09109 | 33029 ft | 397 kts | 6° |
| 2026-05-01 12:15 | 46.36109 | 20.09057 | 33338 ft | 397 kts | 6° |
| 2026-05-01 12:16 | 46.38869 | 20.09008 | 33647 ft | 397 kts | 6° |
| 2026-05-01 12:16 | 46.41631 | 20.08961 | 33958 ft | 397 kts | 6° |
| 2026-05-01 12:16 | 46.44394 | 20.08915 | 34272 ft | 396 kts | 6° |
| 2026-05-01 12:16 | 46.47145 | 20.08866 | 34591 ft | 395 kts | 6° |
| 2026-05-01 12:17 | 46.49891 | 20.08815 | 34843 ft | 395 kts | 6° |
| 2026-05-01 12:17 | 46.52650 | 20.08766 | 35069 ft | 396 kts | 6° |
| 2026-05-01 12:17 | 46.55411 | 20.08717 | 35281 ft | 397 kts | 6° |
| 2026-05-01 12:17 | 46.58180 | 20.08667 | 35485 ft | 398 kts | 5° |
| 2026-05-01 12:18 | 46.60950 | 20.08616 | 35682 ft | 399 kts | 5° |
| 2026-05-01 12:18 | 46.63740 | 20.08568 | 35880 ft | 400 kts | 5° |
| 2026-05-01 12:18 | 46.66526 | 20.08523 | 36091 ft | 401 kts | 5° |
| 2026-05-01 12:18 | 46.69313 | 20.08476 | 36288 ft | 401 kts | 5° |
| 2026-05-01 12:19 | 46.74886 | 20.08368 | 36343 ft | 400 kts | 5° |
| 2026-05-01 12:19 | 46.80446 | 20.08259 | 36346 ft | 399 kts | 5° |
| 2026-05-01 12:20 | 46.85960 | 20.08163 | 36356 ft | 399 kts | 5° |
| 2026-05-01 12:20 | 46.91510 | 20.08071 | 36348 ft | 398 kts | 5° |
| 2026-05-01 12:21 | 46.97046 | 20.07967 | 36358 ft | 398 kts | 5° |
| 2026-05-01 12:21 | 47.02580 | 20.07855 | 36325 ft | 398 kts | 5° |
| 2026-05-01 12:22 | 47.08114 | 20.07745 | 36343 ft | 397 kts | 5° |
| 2026-05-01 12:22 | 47.13644 | 20.07640 | 36342 ft | 397 kts | 5° |
| 2026-05-01 12:23 | 47.19172 | 20.07553 | 36346 ft | 397 kts | 5° |
| 2026-05-01 12:23 | 47.24703 | 20.07451 | 36352 ft | 397 kts | 5° |
| 2026-05-01 12:24 | 47.30229 | 20.07344 | 36348 ft | 397 kts | 5° |
| 2026-05-01 12:24 | 47.35718 | 20.07244 | 36352 ft | 397 kts | 5° |
| 2026-05-01 12:25 | 47.43990 | 20.07093 | 36352 ft | 396 kts | 5° |
| 2026-05-01 12:26 | 47.49503 | 20.06991 | 36348 ft | 396 kts | 5° |
| 2026-05-01 12:26 | 47.57767 | 20.06834 | 36346 ft | 396 kts | 4° |
| 2026-05-01 12:27 | 47.66026 | 20.06668 | 36317 ft | 395 kts | 4° |
| 2026-05-01 12:28 | 47.74241 | 20.06518 | 36326 ft | 395 kts | 4° |
| 2026-05-01 12:29 | 47.82478 | 20.06367 | 36327 ft | 395 kts | 4° |
| 2026-05-01 12:29 | 47.90711 | 20.06213 | 36326 ft | 395 kts | 4° |
| 2026-05-01 12:30 | 47.98949 | 20.06052 | 36325 ft | 394 kts | 4° |
| 2026-05-01 12:31 | 48.04434 | 20.05942 | 36324 ft | 394 kts | 4° |
| 2026-05-01 12:31 | 48.09918 | 20.05839 | 36323 ft | 394 kts | 4° |
| 2026-05-01 12:32 | 48.15402 | 20.05733 | 36327 ft | 394 kts | 4° |
| 2026-05-01 12:32 | 48.20869 | 20.04361 | 36284 ft | 403 kts | 351° |
| 2026-05-01 12:32 | 48.23546 | 20.03292 | 36292 ft | 403 kts | 351° |
| 2026-05-01 12:33 | 48.28973 | 20.01127 | 36305 ft | 404 kts | 351° |
| 2026-05-01 12:33 | 48.34405 | 19.98961 | 36303 ft | 404 kts | 351° |
| 2026-05-01 12:34 | 48.39832 | 19.96789 | 36306 ft | 404 kts | 351° |
| 2026-05-01 12:34 | 48.45263 | 19.94609 | 36287 ft | 404 kts | 351° |
| 2026-05-01 12:35 | 48.50702 | 19.92427 | 36290 ft | 405 kts | 351° |
| 2026-05-01 12:35 | 48.56148 | 19.90229 | 36294 ft | 405 kts | 351° |
| 2026-05-01 12:36 | 48.61610 | 19.88019 | 36288 ft | 407 kts | 351° |
| 2026-05-01 12:36 | 48.67060 | 19.85818 | 36300 ft | 408 kts | 351° |
| 2026-05-01 12:37 | 48.72534 | 19.83591 | 36316 ft | 408 kts | 351° |
| 2026-05-01 12:37 | 48.78014 | 19.81363 | 36314 ft | 407 kts | 351° |
| 2026-05-01 12:38 | 48.83492 | 19.79143 | 36314 ft | 407 kts | 351° |
| 2026-05-01 12:38 | 48.88040 | 19.77292 | 36315 ft | 407 kts | 351° |
| 2026-05-01 12:39 | 48.93513 | 19.75049 | 36316 ft | 407 kts | 351° |
| 2026-05-01 12:39 | 48.98976 | 19.72810 | 36327 ft | 406 kts | 351° |
| 2026-05-01 12:40 | 49.04430 | 19.70569 | 36299 ft | 405 kts | 351° |
| 2026-05-01 12:40 | 49.09875 | 19.68336 | 36306 ft | 405 kts | 351° |
| 2026-05-01 12:41 | 49.15321 | 19.66086 | 36309 ft | 405 kts | 351° |
| 2026-05-01 12:41 | 49.20769 | 19.63818 | 36315 ft | 406 kts | 350° |
| 2026-05-01 12:42 | 49.26217 | 19.61559 | 36313 ft | 406 kts | 351° |
| 2026-05-01 12:42 | 49.31628 | 19.59322 | 36313 ft | 406 kts | 351° |
| 2026-05-01 12:43 | 49.37074 | 19.57058 | 36323 ft | 406 kts | 350° |
| 2026-05-01 12:43 | 49.42527 | 19.54768 | 36280 ft | 406 kts | 350° |
| 2026-05-01 12:44 | 49.47980 | 19.52482 | 36297 ft | 406 kts | 350° |
| 2026-05-01 12:45 | 49.58904 | 19.47910 | 36310 ft | 407 kts | 350° |
| 2026-05-01 12:45 | 49.64392 | 19.45712 | 36317 ft | 405 kts | 352° |
| 2026-05-01 12:46 | 49.69905 | 19.43917 | 36320 ft | 405 kts | 354° |
| 2026-05-01 12:46 | 49.75426 | 19.42201 | 36326 ft | 405 kts | 353° |
| 2026-05-01 12:47 | 49.80938 | 19.40403 | 36333 ft | 405 kts | 353° |
| 2026-05-01 12:47 | 49.86413 | 19.38569 | 36290 ft | 405 kts | 353° |
| 2026-05-01 12:48 | 49.91925 | 19.36712 | 36301 ft | 406 kts | 353° |
| 2026-05-01 12:48 | 49.97442 | 19.34852 | 36311 ft | 406 kts | 353° |
| 2026-05-01 12:49 | 50.02958 | 19.32997 | 36313 ft | 406 kts | 353° |
| 2026-05-01 12:49 | 50.08481 | 19.31137 | 36326 ft | 406 kts | 353° |
| 2026-05-01 12:50 | 50.14008 | 19.29269 | 36327 ft | 406 kts | 353° |
| 2026-05-01 12:50 | 50.19527 | 19.27395 | 36313 ft | 406 kts | 352° |
| 2026-05-01 12:51 | 50.25048 | 19.25515 | 36323 ft | 406 kts | 352° |
| 2026-05-01 12:52 | 50.33332 | 19.22708 | 36296 ft | 406 kts | 352° |
| 2026-05-01 12:52 | 50.41623 | 19.19865 | 36306 ft | 407 kts | 352° |
| 2026-05-01 12:53 | 50.49925 | 19.17008 | 36314 ft | 407 kts | 352° |
| 2026-05-01 12:54 | 50.55423 | 19.15114 | 36316 ft | 407 kts | 352° |
| 2026-05-01 12:54 | 50.63734 | 19.12244 | 36330 ft | 407 kts | 352° |
| 2026-05-01 12:55 | 50.72047 | 19.09374 | 36328 ft | 407 kts | 352° |
| 2026-05-01 12:56 | 50.77583 | 19.07450 | 36332 ft | 407 kts | 352° |
| 2026-05-01 12:56 | 50.83120 | 19.05525 | 36307 ft | 408 kts | 352° |
| 2026-05-01 12:57 | 50.88666 | 19.03587 | 36315 ft | 408 kts | 352° |
| 2026-05-01 12:57 | 50.96984 | 19.00649 | 36320 ft | 409 kts | 351° |
| 2026-05-01 12:58 | 51.02540 | 18.98699 | 36325 ft | 409 kts | 351° |
| 2026-05-01 12:59 | 51.10872 | 18.95777 | 36326 ft | 409 kts | 351° |
| 2026-05-01 12:59 | 51.19159 | 18.92836 | 36332 ft | 409 kts | 351° |
| 2026-05-01 13:00 | 51.27488 | 18.89885 | 36335 ft | 408 kts | 351° |
| 2026-05-01 13:01 | 51.35812 | 18.86925 | 36340 ft | 408 kts | 351° |
| 2026-05-01 13:02 | 51.44130 | 18.83941 | 36337 ft | 408 kts | 351° |
| 2026-05-01 13:07 | 52.05060 | 18.61806 | 36326 ft | 409 kts | 351° |
| 2026-05-01 13:08 | 52.10605 | 18.59750 | 36324 ft | 409 kts | 351° |
| 2026-05-01 13:08 | 52.16154 | 18.57696 | 36329 ft | 409 kts | 351° |
| 2026-05-01 13:09 | 52.21698 | 18.55646 | 36327 ft | 409 kts | 351° |
| 2026-05-01 13:09 | 52.27242 | 18.53594 | 36306 ft | 409 kts | 350° |
| 2026-05-01 13:10 | 52.32796 | 18.51519 | 36310 ft | 410 kts | 350° |
| 2026-05-01 13:10 | 52.38354 | 18.49441 | 36315 ft | 410 kts | 350° |
| 2026-05-01 13:11 | 52.43923 | 18.47355 | 36318 ft | 410 kts | 350° |
| 2026-05-01 13:11 | 52.49490 | 18.45259 | 36322 ft | 410 kts | 350° |
| 2026-05-01 13:12 | 52.55049 | 18.43166 | 36329 ft | 410 kts | 350° |
| 2026-05-01 13:12 | 52.60619 | 18.41077 | 36334 ft | 410 kts | 350° |
| 2026-05-01 13:13 | 52.66138 | 18.38991 | 36332 ft | 410 kts | 350° |
| 2026-05-01 13:13 | 52.71690 | 18.36881 | 36310 ft | 410 kts | 350° |
| 2026-05-01 13:14 | 52.77254 | 18.34764 | 36312 ft | 410 kts | 350° |
| 2026-05-01 13:14 | 52.82820 | 18.32638 | 36313 ft | 410 kts | 350° |
| 2026-05-01 13:15 | 52.88388 | 18.30497 | 36319 ft | 411 kts | 350° |
| 2026-05-01 13:15 | 52.93954 | 18.28362 | 36323 ft | 411 kts | 350° |
| 2026-05-01 13:16 | 52.99519 | 18.26224 | 36329 ft | 411 kts | 350° |
| 2026-05-01 13:16 | 53.05092 | 18.24082 | 36329 ft | 411 kts | 350° |
| 2026-05-01 13:17 | 53.16222 | 18.19772 | 36332 ft | 410 kts | 349° |
| 2026-05-01 13:18 | 53.24528 | 18.16545 | 36306 ft | 410 kts | 349° |
| 2026-05-01 13:18 | 53.30091 | 18.14379 | 36311 ft | 411 kts | 349° |
| 2026-05-01 13:19 | 53.35666 | 18.12189 | 36315 ft | 411 kts | 349° |
| 2026-05-01 13:20 | 53.44016 | 18.08914 | 36323 ft | 411 kts | 349° |
| 2026-05-01 13:20 | 53.49591 | 18.06724 | 36320 ft | 411 kts | 349° |
| 2026-05-01 13:21 | 53.57941 | 18.03422 | 36322 ft | 411 kts | 349° |
| 2026-05-01 13:21 | 53.63507 | 18.01210 | 36319 ft | 411 kts | 349° |
| 2026-05-01 13:22 | 53.69070 | 17.98998 | 36322 ft | 411 kts | 349° |
| 2026-05-01 13:22 | 53.74606 | 17.96796 | 36295 ft | 411 kts | 349° |
| 2026-05-01 13:23 | 53.80216 | 17.94547 | 36301 ft | 412 kts | 349° |
| 2026-05-01 13:23 | 53.85784 | 17.92309 | 36303 ft | 412 kts | 349° |
| 2026-05-01 13:24 | 53.91330 | 17.90081 | 36311 ft | 412 kts | 349° |
| 2026-05-01 13:25 | 53.99704 | 17.86685 | 36315 ft | 412 kts | 348° |
| 2026-05-01 13:25 | 54.04341 | 17.84768 | 36318 ft | 412 kts | 348° |
| 2026-05-01 13:26 | 54.09919 | 17.82457 | 36319 ft | 412 kts | 348° |
| 2026-05-01 13:26 | 54.15488 | 17.80152 | 36329 ft | 412 kts | 348° |
| 2026-05-01 13:27 | 54.21070 | 17.77824 | 36333 ft | 412 kts | 348° |
| 2026-05-01 13:27 | 54.29442 | 17.74329 | 36323 ft | 413 kts | 348° |
| 2026-05-01 13:28 | 54.37826 | 17.70823 | 36332 ft | 414 kts | 348° |
| 2026-05-01 13:29 | 54.49009 | 17.66109 | 36340 ft | 414 kts | 348° |
| 2026-05-01 13:31 | 54.65758 | 17.59008 | 36345 ft | 414 kts | 348° |
| 2026-05-01 13:32 | 54.79759 | 17.53024 | 36326 ft | 415 kts | 347° |
| 2026-05-01 13:33 | 54.93803 | 17.46968 | 36334 ft | 416 kts | 347° |
| 2026-05-01 13:34 | 55.05056 | 17.42093 | 36342 ft | 417 kts | 347° |
| 2026-05-01 13:35 | 55.13512 | 17.38431 | 36335 ft | 417 kts | 347° |
| 2026-05-01 13:36 | 55.21922 | 17.34737 | 36331 ft | 417 kts | 347° |
| 2026-05-01 13:36 | 55.30375 | 17.31009 | 36307 ft | 418 kts | 347° |
| 2026-05-01 13:37 | 55.36032 | 17.28532 | 36316 ft | 419 kts | 347° |
| 2026-05-01 13:37 | 55.41691 | 17.26028 | 36309 ft | 420 kts | 347° |
| 2026-05-01 13:38 | 55.50193 | 17.22256 | 36312 ft | 420 kts | 347° |
| 2026-05-01 13:39 | 55.55858 | 17.19730 | 36312 ft | 420 kts | 347° |
| 2026-05-01 13:39 | 55.61493 | 17.17208 | 36311 ft | 420 kts | 348° |
| 2026-05-01 13:40 | 55.67288 | 17.16454 | 36313 ft | 419 kts | 3° |
| 2026-05-01 13:40 | 55.73109 | 17.17038 | 36310 ft | 419 kts | 3° |
| 2026-05-01 13:41 | 55.78940 | 17.17593 | 36302 ft | 419 kts | 3° |
| 2026-05-01 13:41 | 55.84769 | 17.18130 | 36303 ft | 419 kts | 3° |
| 2026-05-01 13:42 | 55.90598 | 17.18682 | 36297 ft | 420 kts | 3° |
| 2026-05-01 13:42 | 55.96436 | 17.19245 | 36276 ft | 420 kts | 2° |
| 2026-05-01 13:43 | 56.02278 | 17.19814 | 36278 ft | 421 kts | 2° |
| 2026-05-01 13:43 | 56.08106 | 17.20369 | 36269 ft | 421 kts | 2° |
| 2026-05-01 13:44 | 56.13968 | 17.20931 | 36274 ft | 422 kts | 2° |
| 2026-05-01 13:44 | 56.19827 | 17.21502 | 36274 ft | 422 kts | 2° |
| 2026-05-01 13:45 | 56.25696 | 17.22078 | 36278 ft | 422 kts | 2° |
| 2026-05-01 13:45 | 56.31559 | 17.22654 | 36276 ft | 422 kts | 2° |
| 2026-05-01 13:46 | 56.37421 | 17.23235 | 36279 ft | 422 kts | 2° |
| 2026-05-01 13:46 | 56.43284 | 17.23804 | 36277 ft | 422 kts | 2° |
| 2026-05-01 13:47 | 56.49146 | 17.24369 | 36283 ft | 422 kts | 2° |
| 2026-05-01 13:47 | 56.54965 | 17.24944 | 36280 ft | 421 kts | 2° |
| 2026-05-01 13:48 | 56.60814 | 17.25530 | 36275 ft | 421 kts | 2° |
| 2026-05-01 13:48 | 56.66662 | 17.26114 | 36271 ft | 421 kts | 2° |
| 2026-05-01 13:49 | 56.72515 | 17.26700 | 36272 ft | 421 kts | 2° |
| 2026-05-01 13:49 | 56.78360 | 17.27289 | 36267 ft | 421 kts | 2° |
| 2026-05-01 13:50 | 56.84207 | 17.27880 | 36265 ft | 421 kts | 2° |
| 2026-05-01 13:50 | 56.90050 | 17.28465 | 36261 ft | 421 kts | 2° |
| 2026-05-01 13:51 | 56.95901 | 17.29056 | 36258 ft | 421 kts | 2° |
| 2026-05-01 13:51 | 57.01743 | 17.29646 | 36265 ft | 420 kts | 2° |
| 2026-05-01 13:52 | 57.07588 | 17.30232 | 36261 ft | 420 kts | 2° |
| 2026-05-01 13:52 | 57.13424 | 17.30825 | 36262 ft | 420 kts | 2° |
| 2026-05-01 13:53 | 57.19251 | 17.31415 | 36248 ft | 420 kts | 2° |
| 2026-05-01 13:53 | 57.27956 | 17.32309 | 36245 ft | 420 kts | 2° |
| 2026-05-01 13:54 | 57.33825 | 17.32930 | 36257 ft | 419 kts | 1° |
| 2026-05-01 13:54 | 57.39605 | 17.33528 | 36250 ft | 419 kts | 1° |
| 2026-05-01 13:55 | 57.45425 | 17.34127 | 36239 ft | 419 kts | 1° |
| 2026-05-01 13:55 | 57.51223 | 17.35059 | 36234 ft | 420 kts | 9° |
| 2026-05-01 13:56 | 57.56944 | 17.37339 | 36233 ft | 420 kts | 10° |
| 2026-05-01 13:56 | 57.62665 | 17.39604 | 36235 ft | 420 kts | 9° |
| 2026-05-01 13:57 | 57.67421 | 17.41491 | 36233 ft | 420 kts | 10° |
| 2026-05-01 13:57 | 57.74113 | 17.44161 | 36229 ft | 420 kts | 10° |
| 2026-05-01 13:58 | 57.79834 | 17.46448 | 36228 ft | 420 kts | 10° |
| 2026-05-01 13:58 | 57.85559 | 17.48742 | 36237 ft | 421 kts | 9° |
| 2026-05-01 13:59 | 57.91278 | 17.51043 | 36230 ft | 421 kts | 9° |
| 2026-05-01 13:59 | 57.97002 | 17.53354 | 36222 ft | 421 kts | 9° |
| 2026-05-01 14:00 | 58.02720 | 17.55681 | 36223 ft | 421 kts | 9° |
| 2026-05-01 14:00 | 58.05585 | 17.56844 | 35930 ft | 421 kts | 9° |
| 2026-05-01 14:00 | 58.08491 | 17.58023 | 34849 ft | 434 kts | 9° |
| 2026-05-01 14:01 | 58.11459 | 17.59229 | 34062 ft | 438 kts | 9° |
| 2026-05-01 14:01 | 58.14414 | 17.60436 | 33123 ft | 442 kts | 9° |
| 2026-05-01 14:01 | 58.17431 | 17.61673 | 32227 ft | 445 kts | 9° |
| 2026-05-01 14:01 | 58.20466 | 17.62920 | 31345 ft | 448 kts | 9° |
| 2026-05-01 14:02 | 58.23523 | 17.64175 | 30362 ft | 452 kts | 9° |
| 2026-05-01 14:02 | 58.26611 | 17.65445 | 29213 ft | 456 kts | 9° |
| 2026-05-01 14:02 | 58.29718 | 17.66731 | 28166 ft | 457 kts | 9° |
| 2026-05-01 14:02 | 58.32823 | 17.68022 | 27463 ft | 452 kts | 9° |
| 2026-05-01 14:03 | 58.35868 | 17.69292 | 26840 ft | 445 kts | 9° |
| 2026-05-01 14:03 | 58.38870 | 17.70543 | 26180 ft | 440 kts | 9° |
| 2026-05-01 14:03 | 58.41845 | 17.71777 | 25526 ft | 434 kts | 8° |
| 2026-05-01 14:03 | 58.44780 | 17.72996 | 24882 ft | 429 kts | 8° |
| 2026-05-01 14:04 | 58.47678 | 17.74201 | 24250 ft | 425 kts | 8° |
| 2026-05-01 14:04 | 58.50554 | 17.75398 | 23594 ft | 421 kts | 8° |
| 2026-05-01 14:04 | 58.53397 | 17.76585 | 22933 ft | 415 kts | 8° |
| 2026-05-01 14:04 | 58.55292 | 17.77380 | 22505 ft | 411 kts | 8° |
| 2026-05-01 14:05 | 58.58951 | 17.78923 | 21723 ft | 403 kts | 8° |
| 2026-05-01 14:05 | 58.61673 | 17.80073 | 21128 ft | 398 kts | 8° |
| 2026-05-01 14:05 | 58.64369 | 17.81211 | 20570 ft | 394 kts | 8° |
| 2026-05-01 14:05 | 58.67033 | 17.82333 | 20025 ft | 391 kts | 7° |
| 2026-05-01 14:06 | 58.69679 | 17.83443 | 19504 ft | 387 kts | 7° |
| 2026-05-01 14:06 | 58.72302 | 17.84545 | 18977 ft | 384 kts | 7° |
| 2026-05-01 14:06 | 58.74895 | 17.85643 | 18488 ft | 381 kts | 7° |
| 2026-05-01 14:06 | 58.77472 | 17.86743 | 17949 ft | 376 kts | 7° |
| 2026-05-01 14:07 | 58.80010 | 17.87827 | 17457 ft | 371 kts | 7° |
| 2026-05-01 14:07 | 58.82466 | 17.89347 | 16989 ft | 373 kts | 17° |
| 2026-05-01 14:07 | 58.84868 | 17.91545 | 16710 ft | 387 kts | 20° |
| 2026-05-01 14:08 | 58.89714 | 17.96112 | 16053 ft | 386 kts | 20° |
| 2026-05-01 14:08 | 58.92123 | 17.98400 | 15732 ft | 385 kts | 20° |
| 2026-05-01 14:08 | 58.94521 | 18.00677 | 15389 ft | 383 kts | 20° |
| 2026-05-01 14:08 | 58.96912 | 18.02948 | 15060 ft | 382 kts | 20° |
| 2026-05-01 14:09 | 58.99289 | 18.05207 | 14734 ft | 380 kts | 20° |
| 2026-05-01 14:09 | 59.01654 | 18.07457 | 14411 ft | 378 kts | 20° |
| 2026-05-01 14:09 | 59.03980 | 18.09674 | 14092 ft | 376 kts | 20° |
| 2026-05-01 14:09 | 59.06323 | 18.11913 | 13750 ft | 375 kts | 21° |
| 2026-05-01 14:10 | 59.08716 | 18.14004 | 13413 ft | 369 kts | 14° |
| 2026-05-01 14:10 | 59.11143 | 18.15233 | 13112 ft | 361 kts | 4° |
| 2026-05-01 14:10 | 59.13623 | 18.15672 | 12804 ft | 357 kts | 358° |
| 2026-05-01 14:10 | 59.16098 | 18.15953 | 12498 ft | 356 kts | 358° |
| 2026-05-01 14:11 | 59.18568 | 18.16239 | 12194 ft | 355 kts | 359° |
| 2026-05-01 14:11 | 59.23469 | 18.16807 | 11594 ft | 351 kts | 359° |
| 2026-05-01 14:11 | 59.25935 | 18.17093 | 11287 ft | 350 kts | 359° |
| 2026-05-01 14:12 | 59.28322 | 18.17376 | 11006 ft | 344 kts | 359° |
| 2026-05-01 14:12 | 59.30652 | 18.17662 | 10879 ft | 328 kts | 359° |
| 2026-05-01 14:12 | 59.32904 | 18.17943 | 10754 ft | 314 kts | 359° |
| 2026-05-01 14:12 | 59.35039 | 18.18206 | 10632 ft | 301 kts | 358° |
| 2026-05-01 14:13 | 59.37088 | 18.18450 | 10508 ft | 290 kts | 358° |
| 2026-05-01 14:13 | 59.38406 | 18.18606 | 10400 ft | 284 kts | 358° |
| 2026-05-01 14:13 | 59.40984 | 18.18910 | 10224 ft | 278 kts | 358° |
| 2026-05-01 14:13 | 59.42917 | 18.19132 | 10139 ft | 278 kts | 358° |
| 2026-05-01 14:14 | 59.44839 | 18.19354 | 9878 ft | 276 kts | 358° |
| 2026-05-01 14:14 | 59.46744 | 18.19579 | 9582 ft | 271 kts | 358° |
| 2026-05-01 14:14 | 59.48595 | 18.19804 | 9459 ft | 262 kts | 358° |
| 2026-05-01 14:14 | 59.50385 | 18.20021 | 9303 ft | 255 kts | 358° |
| 2026-05-01 14:15 | 59.52147 | 18.20230 | 9037 ft | 252 kts | 358° |
| 2026-05-01 14:15 | 59.53303 | 18.20405 | 8848 ft | 253 kts | 2° |
| 2026-05-01 14:15 | 59.55036 | 18.21012 | 8541 ft | 253 kts | 5° |
| 2026-05-01 14:15 | 59.56770 | 18.21637 | 8241 ft | 252 kts | 5° |
| 2026-05-01 14:16 | 59.58490 | 18.22260 | 7958 ft | 251 kts | 5° |
| 2026-05-01 14:16 | 59.60207 | 18.22885 | 7696 ft | 250 kts | 5° |
| 2026-05-01 14:16 | 59.61917 | 18.23509 | 7399 ft | 250 kts | 5° |
| 2026-05-01 14:16 | 59.63632 | 18.24135 | 7119 ft | 250 kts | 5° |
| 2026-05-01 14:17 | 59.65337 | 18.24759 | 6857 ft | 248 kts | 5° |
| 2026-05-01 14:17 | 59.67028 | 18.25378 | 6577 ft | 247 kts | 5° |
| 2026-05-01 14:17 | 59.68718 | 18.25998 | 6289 ft | 246 kts | 5° |
| 2026-05-01 14:17 | 59.70400 | 18.26617 | 5907 ft | 246 kts | 6° |
| 2026-05-01 14:18 | 59.72078 | 18.27234 | 5556 ft | 244 kts | 5° |
| 2026-05-01 14:18 | 59.73740 | 18.27843 | 5221 ft | 242 kts | 5° |
| 2026-05-01 14:18 | 59.75384 | 18.27947 | 4809 ft | 232 kts | 344° |
| 2026-05-01 14:18 | 59.76833 | 18.26743 | 4310 ft | 224 kts | 320° |
| 2026-05-01 14:19 | 59.77857 | 18.24490 | 3749 ft | 221 kts | 297° |
| 2026-05-01 14:19 | 59.78298 | 18.21605 | 3234 ft | 217 kts | 272° |
| 2026-05-01 14:19 | 59.78178 | 18.18662 | 2811 ft | 210 kts | 261° |
| 2026-05-01 14:19 | 59.77974 | 18.15926 | 2693 ft | 193 kts | 261° |
| 2026-05-01 14:20 | 59.77788 | 18.13359 | 2615 ft | 184 kts | 261° |
| 2026-05-01 14:20 | 59.77431 | 18.08393 | 2519 ft | 180 kts | 261° |
| 2026-05-01 14:20 | 59.77256 | 18.05943 | 2516 ft | 179 kts | 262° |
| 2026-05-01 14:21 | 59.76999 | 18.03539 | 2472 ft | 174 kts | 250° |
| 2026-05-01 14:21 | 59.76392 | 18.01545 | 2314 ft | 165 kts | 231° |
| 2026-05-01 14:21 | 59.75517 | 18.00152 | 2174 ft | 159 kts | 212° |
| 2026-05-01 14:22 | 59.73392 | 17.98990 | 1789 ft | 156 kts | 194° |
| 2026-05-01 14:22 | 59.72365 | 17.98616 | 1604 ft | 143 kts | 195° |
| 2026-05-01 14:22 | 59.71424 | 17.98272 | 1403 ft | 134 kts | 196° |
| 2026-05-01 14:22 | 59.70516 | 17.97940 | 1233 ft | 133 kts | 195° |
| 2026-05-01 14:23 | 59.69614 | 17.97610 | 1071 ft | 130 kts | 197° |
| 2026-05-01 14:23 | 59.68736 | 17.97290 | 902 ft | 128 kts | 196° |
| 2026-05-01 14:23 | 59.67855 | 17.96969 | 744 ft | 130 kts | 195° |
| 2026-05-01 14:23 | 59.66968 | 17.96646 | 578 ft | 129 kts | 193° |
| 2026-05-01 14:24 | 59.66097 | 17.96336 | 357 ft | 122 kts | 195° |
| 2026-05-01 14:24 | 59.65297 | 17.96089 | 108 ft | 116 kts | 195° |